Aviation Digital Data Service (ADDS)

Output produced by METARs form (0512 UTC 24 January 2019)
found at http://www.aviationweather.gov/metar/data/
 
Forecast for: VVCR (CAM RANH BAY , VN)
Text: TAF VVCR 232300Z 2400/2424 02012KT 9999 SCT013 SCT040
Forecast period: 0000 UTC 24 January 2019 to 0000 UTC 25 January 2019
Forecast type: FROM: standard forecast or significant change
Winds: from the NNE (20 degrees) at 14 MPH (12 knots; 6.2 m/s)
Visibility: 6 or more miles 10+ km)
Ceiling: at least 12,000 feet AGL
Clouds: scattered clouds at 1300 feet AGL
scattered clouds at 4000 feet AGL
Weather: no significant weather forecast for this period